createdAt,value
2018-07-28T00:05:51.623Z,12.68
2018-07-28T00:11:46.638Z,12.7
2018-07-28T00:17:41.651Z,12.36
2018-07-28T00:23:36.730Z,13.62
2018-07-28T00:29:31.692Z,12.43
2018-07-28T00:35:26.664Z,13.02
2018-07-28T00:41:21.673Z,12.94
2018-07-28T00:47:16.657Z,12.83
2018-07-28T00:53:11.665Z,13.64
2018-07-28T00:59:06.697Z,13.07
2018-07-28T01:05:01.682Z,13.8
2018-07-28T01:10:56.774Z,12.65
2018-07-28T01:16:51.737Z,12.68
2018-07-28T01:22:46.693Z,13.66
2018-07-28T01:28:41.695Z,14.49
2018-07-28T01:34:36.855Z,13.34
2018-07-28T01:40:31.712Z,13.32
2018-07-28T01:46:26.742Z,13.59
2018-07-28T01:52:21.791Z,14.25
2018-07-28T01:58:16.754Z,13.09
2018-07-28T02:04:11.808Z,13.99
2018-07-28T02:10:06.758Z,13.72
2018-07-28T02:16:01.776Z,14.26
2018-07-28T02:21:56.786Z,15.61
2018-07-28T02:27:51.866Z,14.78
2018-07-28T02:33:46.772Z,14.71
2018-07-28T02:39:41.785Z,14.59
2018-07-28T02:45:36.783Z,15.89
2018-07-28T02:51:31.816Z,14.88
2018-07-28T02:57:26.789Z,14.66
2018-07-28T03:03:21.845Z,14.33
2018-07-28T03:09:16.783Z,14.9
2018-07-28T03:15:11.856Z,15.55
2018-07-28T03:21:06.825Z,15.91
2018-07-28T03:27:01.853Z,14.23
2018-07-28T03:32:56.929Z,14.61
2018-07-28T03:38:51.789Z,14.95
2018-07-28T03:44:46.824Z,15.47
2018-07-28T03:50:41.845Z,15.13
2018-07-28T03:56:36.914Z,14.62
2018-07-28T04:02:31.799Z,15.04
2018-07-28T04:08:26.816Z,16.48
2018-07-28T04:14:21.898Z,15.8
2018-07-28T04:20:16.877Z,15.57
2018-07-28T04:26:11.952Z,14.6
2018-07-28T04:32:06.913Z,15.6
2018-07-28T04:38:01.851Z,15.17
2018-07-28T04:43:56.960Z,15.58
2018-07-28T04:49:51.902Z,15.12
2018-07-28T04:55:46.855Z,15.61
2018-07-28T05:01:41.864Z,16.55
2018-07-28T05:07:37.131Z,15.79
2018-07-28T05:13:31.876Z,16.5
2018-07-28T05:19:26.880Z,15.38
2018-07-28T05:25:21.870Z,17.17
2018-07-28T05:31:16.946Z,18.36
2018-07-28T05:37:12.011Z,16.45
2018-07-28T05:43:06.914Z,15.37
2018-07-28T05:49:01.922Z,15.24
2018-07-28T05:54:56.965Z,15.46
2018-07-28T06:00:51.912Z,14.25
2018-07-28T06:06:46.939Z,15.06
2018-07-28T06:12:41.925Z,14.79
2018-07-28T06:18:36.931Z,15.53
2018-07-28T06:24:31.950Z,14.22
2018-07-28T06:30:26.981Z,14.3
2018-07-28T06:36:22.016Z,13.73
2018-07-28T06:42:17.007Z,13.93
2018-07-28T06:48:11.981Z,14.2
2018-07-28T06:54:06.993Z,13.94
2018-07-28T07:00:01.987Z,13.21
2018-07-28T07:05:56.973Z,14.73
2018-07-28T07:11:52.029Z,15.02
2018-07-28T07:17:46.986Z,14.27
2018-07-28T07:23:42.030Z,14.91
2018-07-28T07:29:36.995Z,14.49
2018-07-28T07:35:31.966Z,14.96
2018-07-28T07:41:27.037Z,17.17
2018-07-28T07:47:22.059Z,16.35
2018-07-28T07:53:17.017Z,16.3
2018-07-28T07:59:12.046Z,15.95
2018-07-28T08:05:07.021Z,15.75
2018-07-28T08:11:02.036Z,16.59
2018-07-28T08:16:57.030Z,17.44
2018-07-28T08:22:52.039Z,16.37
2018-07-28T08:28:47.058Z,15.89
2018-07-28T08:34:42.057Z,14.56
2018-07-28T08:40:37.083Z,14.21
2018-07-28T08:46:32.104Z,15.28
2018-07-28T08:52:27.088Z,14.45
2018-07-28T08:58:22.118Z,14.32
2018-07-28T09:04:17.109Z,14.54
2018-07-28T09:10:12.130Z,13.51
2018-07-28T09:16:07.071Z,13.41
2018-07-28T09:22:02.105Z,13.95
2018-07-28T09:27:57.082Z,14.51
2018-07-28T09:33:52.102Z,12.61
2018-07-28T09:39:47.100Z,12.37
2018-07-28T09:45:42.110Z,12.84
2018-07-28T09:51:37.085Z,12.62
2018-07-28T09:57:32.113Z,11.5
2018-07-28T10:03:27.119Z,10.83
2018-07-28T10:09:22.132Z,11.63
2018-07-28T10:15:17.114Z,11.2
2018-07-28T10:21:12.105Z,11.1
2018-07-28T10:27:07.142Z,10.02
2018-07-28T10:33:02.137Z,9.83
2018-07-28T10:38:57.142Z,8.94
2018-07-28T10:44:52.156Z,10.2
2018-07-28T10:50:47.179Z,9.53
2018-07-28T10:56:42.207Z,9.81
2018-07-28T11:02:37.166Z,9.51
2018-07-28T11:08:32.170Z,10.18
2018-07-28T11:14:27.215Z,9.97
2018-07-28T11:20:22.234Z,9.57
2018-07-28T11:26:17.321Z,10.48
2018-07-28T11:32:12.244Z,9.5
2018-07-28T11:38:07.215Z,9
2018-07-28T11:44:02.247Z,8.77
2018-07-28T11:49:57.357Z,8.72
2018-07-28T11:55:52.254Z,8.5
2018-07-28T12:01:47.312Z,8.2
2018-07-28T12:07:42.228Z,8.33
2018-07-28T12:13:37.231Z,8.38
2018-07-28T12:19:32.301Z,7.09
2018-07-28T12:25:27.246Z,7.36
2018-07-28T12:31:22.300Z,7.64
2018-07-28T12:37:17.257Z,6.33
2018-07-28T12:43:12.257Z,6.2
2018-07-28T12:49:07.310Z,5.1
2018-07-28T12:55:02.253Z,5.14
2018-07-28T13:00:57.278Z,4.33
2018-07-28T13:06:52.377Z,4.98
2018-07-28T13:12:47.385Z,4.4
2018-07-28T13:18:42.316Z,4.14
2018-07-28T13:24:37.333Z,4.26
2018-07-28T13:30:32.296Z,4.41
2018-07-28T13:36:27.291Z,4.58
2018-07-28T13:42:22.326Z,4.93
2018-07-28T13:48:17.311Z,4.82
2018-07-28T13:54:12.312Z,4.9
2018-07-28T14:00:07.326Z,4.69
2018-07-28T14:06:02.380Z,5.23
2018-07-28T14:11:57.338Z,5.09
2018-07-28T14:17:52.387Z,5.69
2018-07-28T14:23:47.373Z,6.17
2018-07-28T14:29:42.356Z,6.58
2018-07-28T14:35:37.410Z,6.33
2018-07-28T14:41:32.407Z,6.21
2018-07-28T14:47:27.383Z,6.73
2018-07-28T14:53:22.396Z,6.49
2018-07-28T14:59:17.406Z,6.69
2018-07-28T15:05:12.401Z,6.1
2018-07-28T15:11:07.391Z,6.46
2018-07-28T15:17:02.408Z,6.43
2018-07-28T15:22:57.410Z,6.55
2018-07-28T15:28:52.532Z,6.32
2018-07-28T15:34:47.464Z,6.67
2018-07-28T15:40:42.475Z,6.26
2018-07-28T15:46:37.415Z,6.9
2018-07-28T15:52:32.422Z,6.67
2018-07-28T15:58:27.493Z,6.41
2018-07-28T16:04:22.483Z,6.16
2018-07-28T16:10:17.439Z,6.19
2018-07-28T16:16:12.478Z,6.77
2018-07-28T16:22:07.445Z,6.63
2018-07-28T16:28:02.488Z,6.92
2018-07-28T16:33:57.549Z,8.64
2018-07-28T16:39:52.498Z,7.55
2018-07-28T16:45:47.575Z,7.29
2018-07-28T16:51:42.488Z,6.83
2018-07-28T16:57:37.484Z,6.48
2018-07-28T17:03:32.496Z,6.71
2018-07-28T17:09:27.492Z,6.74
2018-07-28T17:15:22.576Z,5.91
2018-07-28T17:21:17.546Z,6.55
2018-07-28T17:27:12.524Z,6.27
2018-07-28T17:33:07.555Z,6.82
2018-07-28T17:39:02.591Z,8.09
2018-07-28T17:44:57.529Z,6.01
2018-07-28T17:50:52.622Z,6.59
2018-07-28T17:56:47.526Z,7.52
2018-07-28T18:02:42.585Z,6.53
2018-07-28T18:08:37.838Z,6.67
2018-07-28T18:14:32.624Z,6.96
2018-07-28T18:20:27.595Z,7.86
2018-07-28T18:26:22.606Z,8.71
2018-07-28T18:32:17.641Z,6.8
2018-07-28T18:38:12.605Z,6.18
2018-07-28T18:44:07.585Z,6.68
2018-07-28T18:50:02.661Z,7.06
2018-07-28T18:55:57.597Z,7
2018-07-28T19:01:52.618Z,6.6
2018-07-28T19:07:47.610Z,6.44
2018-07-28T19:13:42.639Z,7.13
2018-07-28T19:19:37.679Z,7.36
2018-07-28T19:25:32.700Z,7.33
2018-07-28T19:31:27.642Z,6.8
2018-07-28T19:37:22.690Z,7.29
2018-07-28T19:43:17.616Z,7.54
2018-07-28T19:49:12.648Z,7.07
2018-07-28T19:55:07.686Z,7.71
2018-07-28T20:01:02.652Z,8.17
2018-07-28T20:06:57.700Z,6.8
2018-07-28T20:12:52.736Z,6.97
2018-07-28T20:18:47.710Z,6.88
2018-07-28T20:24:42.688Z,6.57
2018-07-28T20:30:37.704Z,5.91
2018-07-28T20:36:32.699Z,6.35
2018-07-28T20:42:27.700Z,6.4
2018-07-28T20:48:22.696Z,6.44
2018-07-28T20:54:17.754Z,6.66
2018-07-28T21:00:12.698Z,6.36
2018-07-28T21:06:07.736Z,6.53
2018-07-28T21:12:02.745Z,7.43
2018-07-28T21:17:57.750Z,6.86
2018-07-28T21:23:52.735Z,6.47
2018-07-28T21:29:47.766Z,6.4
2018-07-28T21:35:42.772Z,6.4
2018-07-28T21:41:37.744Z,7.11
2018-07-28T21:47:32.749Z,6.53
2018-07-28T21:53:27.774Z,6.67
2018-07-28T21:59:22.835Z,6.75
2018-07-28T22:05:17.748Z,6.5
2018-07-28T22:11:12.768Z,6.22
2018-07-28T22:17:07.835Z,6.55
2018-07-28T22:23:02.832Z,6.24
2018-07-28T22:28:57.820Z,6.77
2018-07-28T22:34:52.834Z,6.39
2018-07-28T22:40:47.829Z,6.84
2018-07-28T22:46:42.850Z,6.66
2018-07-28T22:52:37.875Z,7.12
2018-07-28T22:58:32.858Z,6.67
2018-07-28T23:04:27.862Z,7.25
2018-07-28T23:10:22.849Z,7.01
2018-07-28T23:16:17.908Z,7.33
2018-07-28T23:22:12.894Z,6.61
2018-07-28T23:28:07.873Z,6.62
2018-07-28T23:34:02.948Z,7.45
2018-07-28T23:39:57.942Z,6.95
2018-07-28T23:45:52.912Z,7.25
2018-07-28T23:51:47.919Z,6.74
2018-07-28T23:57:42.913Z,7.61
